Happy Valentine's Day! 

Flight Track Log - Related Links

Times and Time Zones

All times are in EDT time to prevent confusion due to time zone crossing. See the UAL4380 flight status page for this flight to view local times or setup timezone preferences in your user account.


Time Position Orientation Groundspeed Altitude Reporting Facility
EDT Latitude Longitude Course Direction KTS MPH feet Rate Location/Type
Mon 09:04:56 AM 29.9614 -95.3411 333° Northwest 148 170 800  Level Houston Center
Mon 09:05:39 AM 29.9317 -95.3592 208° Southwest 219 252 2,000 1,556 Climbing Houston Center
Mon 09:06:17 AM 29.9592 -95.3914 315° West 250 288 2,900 1,791 Climbing Houston Center
Mon 09:06:46 AM 29.9936 -95.3953 354° North 265 305 4,000 2,710 Climbing Houston Center
Mon 09:07:19 AM 30.0289 -95.3972 357° North 252 290 5,700 3,049 Climbing Houston Center
Mon 09:07:47 AM 30.0653 -95.3961 North 240 276 7,100 2,571 Climbing Houston Center
Mon 09:08:00 AM 30.2413 -95.4773 333° Northwest  Level FlightAware Approximate
Mon 09:08:43 AM 30.1272 -95.3864 North 249 287 9,300  Level Houston Center
Mon 09:09:00 AM 30.3051 -95.5149 333° Northwest  Level FlightAware Approximate
Mon 09:09:22 AM 30.1675 -95.3792 North 253 291 10,400  Level Houston Center
Mon 09:10:00 AM 30.3689 -95.5526 333° Northwest  Level FlightAware Approximate
Mon 09:10:24 AM 30.2392 -95.4114 339° North 299 344 11,400  Level Houston Center
Mon 09:11:25 AM 30.3106 -95.4692 325° Northwest 310 357 12,500 1,366 Climbing Houston Center
Mon 09:12:27 AM 30.3856 -95.5303 325° Northwest 326 375 14,200 1,403 Climbing Houston Center
Mon 09:13:29 AM 30.4600 -95.5911 325° Northwest 327 376 15,400 878 Climbing Houston Center
Mon 09:14:30 AM 30.5586 -95.6664 327° Northwest 350 403 16,000 341 Climbing Houston Center
Mon 09:15:32 AM 30.6550 -95.7153 336° Northwest 379 436 16,100 48 Climbing Houston Center
Mon 09:16:34 AM 30.7428 -95.7631 335° Northwest 374 430 16,100  Level Houston Center
Mon 09:17:36 AM 30.8361 -95.8125 336° Northwest 368 423 16,100  Level Houston Center
Mon 09:18:38 AM 30.9489 -95.8731 335° Northwest 369 425 16,100  Level Houston Center
Mon 09:19:39 AM 31.0422 -95.9239 335° Northwest 369 425 16,100  Level Houston Center
Mon 09:20:41 AM 31.1375 -95.9722 337° Northwest 369 425 16,100  Level Houston Center
Mon 09:21:18 AM 31.1947 -95.9853 349° North 359 413 16,100  Level Fort Worth Center
Mon 09:22:18 AM 31.2975 -96.0106 348° North 365 420 16,100  Level Fort Worth Center
Mon 09:23:18 AM 31.4019 -96.0358 348° North 377 434 16,100  Level Fort Worth Center
Mon 09:24:18 AM 31.5131 -96.0608 349° North 372 428 16,100  Level Fort Worth Center
Mon 09:25:18 AM 31.6175 -96.0839 349° North 378 435 16,100  Level Fort Worth Center
Mon 09:26:18 AM 31.7203 -96.1117 347° North 378 435 16,100  Level Fort Worth Center
Mon 09:27:18 AM 31.8247 -96.1347 349° North 373 429 16,100 -50 Level Fort Worth Center
Mon 09:28:18 AM 31.9233 -96.1603 348° North 373 429 16,000 -50 Descending Fort Worth Center
Mon 09:29:18 AM 32.0194 -96.1783 351° North 378 435 16,000 -350 Level Fort Worth Center
Mon 09:30:18 AM 32.1197 -96.2017 349° North 373 429 15,300 -1,700 Descending Fort Worth Center
Mon 09:31:18 AM 32.2161 -96.2372 343° North 368 423 12,600 -2,200 Descending Fort Worth Center
Mon 09:32:18 AM 32.3086 -96.2925 333° Northwest 348 400 10,900 -1,450 Descending Fort Worth Center
Mon 09:33:18 AM 32.3736 -96.3261 336° Northwest 301 346 9,700 -1,050 Descending Fort Worth Center
Mon 09:34:18 AM 32.4469 -96.3719 332° Northwest 280 322 8,800 -1,250 Descending Fort Worth Center
Mon 09:35:18 AM 32.5078 -96.4083 333° Northwest 275 316 7,200 -1,800 Descending Fort Worth Center
Mon 09:36:18 AM 32.5792 -96.4544 331° Northwest 270 311 5,200 -1,100 Descending Fort Worth Center
Mon 09:37:18 AM 32.6358 -96.4908 332° Northwest 265 305 5,000 -100 Descending Fort Worth Center
Mon 09:38:18 AM 32.7050 -96.5394 329° Northwest 260 299 5,000 -50 Level Fort Worth Center
Mon 09:39:18 AM 32.7575 -96.5883 322° Northwest 265 305 4,900  Descending Fort Worth Center
Mon 09:40:18 AM 32.8206 -96.6447 323° Northwest 265 305 5,000 -319 Climbing Fort Worth Center
Mon 09:41:11 AM 32.8667 -96.7000 315° West 266 306 4,300 -1,115 Descending Dallas / Fort Worth TRACON
Mon 09:42:11 AM 32.9167 -96.7667 312° West 269 310 2,900 -650 Descending Dallas / Fort Worth TRACON
Mon 09:43:11 AM 32.9667 -96.8333 312° West 275 316 3,000 100 Climbing Dallas / Fort Worth TRACON

Login

Don't have an account? Register now (free) for customized features, flight alerts, and more!